Terminal Aerodrome Forecast
Issued by NWS Jackson, MS

Home | Current Version | Previous Version | Text Only | Print | Product List | Glossary On
Versions: 1 2 3 4 5 6 7 8 9 10 11 12 13 14 15 16
325
FTUS44 KMEG 291130
TAFTUP
TAF
KTUP 291130Z 2912/3012 02008KT P6SM FEW050
     FM291700 04015G21KT P6SM FEW050
     FM300100 03009KT P6SM SKC=

USA.gov is the U.S. government's official web portal to all federal, state and local government web resources and services.